Flight Track Log - Related Links

Times and Time Zones

All times are in EST time to prevent confusion due to time zone crossing. See the UAL3841 flight status page for this flight to view local times or setup timezone preferences in your user account.


Time Position Orientation Groundspeed Altitude Reporting Facility
EST Latitude Longitude Course Direction KTS MPH feet Rate Location/Type
Wed 05:19:33 PM 38.9500 -77.5333 North 170 196 2,700  Level Potomac TRACON
Wed 05:21:25 PM 39.0275 -77.6303 316° Northwest 206 237 7,000 2,267 Climbing Washington Center
Wed 05:22:25 PM 39.0925 -77.6108 13° North 200 230 9,200 1,934 Climbing Washington Center
Wed 05:23:26 PM 39.1656 -77.5942 10° North 216 249 10,900 1,328 Climbing Washington Center
Wed 05:24:00 PM 39.5428 -77.0352 North  Level Estimated
Wed 05:24:27 PM 39.2536 -77.5669 13° North 285 328 11,900  Level Washington Center
Wed 05:25:24 PM 39.3458 -77.5400 13° North 306 352 13,000 1,231 Climbing Washington Center
Wed 05:26:24 PM 39.4461 -77.5131 12° North 342 394 14,300 1,289 Climbing Washington Center
Wed 05:27:25 PM 39.5442 -77.5075 North 354 407 15,600 1,317 Climbing Washington Center
Wed 05:28:27 PM 39.6556 -77.5181 356° North 448 516 17,000 1,082 Climbing New York Center
Wed 05:29:27 PM 39.7469 -77.5269 356° North 342 394 17,800 1,150 Climbing New York Center
Wed 05:30:27 PM 39.8589 -77.5403 355° North 347 399 19,300 1,300 Climbing New York Center
Wed 05:31:27 PM 39.9586 -77.5472 357° North 352 405 20,400 850 Climbing New York Center
Wed 05:32:27 PM 40.0739 -77.4961 19° North 384 442 21,000 550 Climbing New York Center
Wed 05:33:27 PM 40.1886 -77.4228 26° Northeast 418 481 21,500 700 Climbing New York Center
Wed 05:34:27 PM 40.2878 -77.3289 36° Northeast 460 529 22,400 950 Climbing New York Center
Wed 05:35:27 PM 40.3956 -77.2275 36° Northeast 470 541 23,400 1,000 Climbing New York Center
Wed 05:36:27 PM 40.5053 -77.1258 35° Northeast 475 547 24,400 1,000 Climbing New York Center
Wed 05:37:27 PM 40.6128 -77.0236 36° Northeast 480 552 25,400 950 Climbing New York Center
Wed 05:38:27 PM 40.7247 -76.9186 35° Northeast 480 552 26,300 800 Climbing New York Center
Wed 05:39:27 PM 40.8364 -76.8136 35° Northeast 480 552 27,000 350 Climbing New York Center
Wed 05:40:27 PM 40.9500 -76.7056 36° Northeast 480 552 27,000  Level New York Center
Wed 05:41:27 PM 41.0661 -76.5944 36° Northeast 494 568 27,000  Level New York Center
Wed 05:42:27 PM 41.1864 -76.4781 36° Northeast 515 593 27,000  Level New York Center
Wed 05:43:27 PM 41.3086 -76.3611 36° Northeast 528 608 27,000  Level New York Center
Wed 05:44:28 PM 41.4439 -76.2314 36° Northeast 536 617 27,000  Level New York Center
Wed 05:45:27 PM 41.5658 -76.1108 36° Northeast 542 624 27,000  Level New York Center
Wed 05:46:27 PM 41.6856 -75.9956 36° Northeast 547 629 27,000  Level New York Center
Wed 05:47:27 PM 41.8075 -75.8742 37° Northeast 547 629 27,000  Level New York Center
Wed 05:49:56 PM 42.0978 -75.5883 36° Northeast 545 627 27,000  Level Boston Center
Wed 05:50:59 PM 42.2186 -75.4686 36° Northeast 541 623 27,000 -49 Level Boston Center
Wed 05:51:59 PM 42.3497 -75.3381 36° Northeast 539 620 26,900  Descending Boston Center
Wed 05:53:00 PM 42.4692 -75.2172 37° Northeast 539 620 27,000 49 Climbing Boston Center
Wed 05:54:01 PM 42.5872 -75.0944 37° Northeast 538 619 27,000  Level Boston Center
Wed 05:55:05 PM 42.7064 -74.9722 37° Northeast 539 620 27,000  Level Boston Center
Wed 05:56:06 PM 42.8247 -74.8506 37° Northeast 538 619 27,000  Level Boston Center
Wed 05:57:07 PM 42.9675 -74.7039 37° Northeast 540 621 27,000  Level Boston Center
Wed 05:58:07 PM 43.0861 -74.5825 37° Northeast 540 621 27,000 -339 Level Boston Center
Wed 05:59:11 PM 43.2025 -74.4617 37° Northeast 533 613 26,300 -823 Descending Boston Center
Wed 06:00:11 PM 43.3189 -74.3389 37° Northeast 532 612 25,300 -645 Descending Boston Center
Wed 06:01:12 PM 43.4367 -74.2156 37° Northeast 535 616 25,000 -242 Descending Boston Center
Wed 06:02:15 PM 43.5667 -74.0803 37° Northeast 536 617 24,800 -1,210 Descending Boston Center
Wed 06:03:16 PM 43.6917 -73.9461 38° Northeast 518 596 22,500 -2,479 Descending Boston Center
Wed 06:04:16 PM 43.7936 -73.8378 37° Northeast 469 540 19,800 -2,705 Descending Boston Center
Wed 06:05:18 PM 43.8908 -73.7339 38° Northeast 445 512 17,000 -2,928 Descending Boston Center
Wed 06:06:21 PM 43.9872 -73.6297 38° Northeast 411 473 13,700 -2,903 Descending Boston Center
Wed 06:07:22 PM 44.0447 -73.5053 57° Northeast 408 470 11,000 -1,770 Descending Boston Center
Wed 06:08:23 PM 44.0747 -73.3597 74° East 363 418 10,100 -435 Descending Boston Center
Wed 06:09:26 PM 44.0986 -73.2264 76° East 360 414 10,100  Level Boston Center
Wed 06:10:26 PM 44.1217 -73.0939 76° East 358 412 10,100 -298 Level Boston Center
Wed 06:11:27 PM 44.1447 -72.9633 76° East 309 356 9,500 -1,161 Descending Boston Center
Wed 06:12:30 PM 44.1742 -72.8603 68° East 298 343 7,700 -1,452 Descending Boston Center
Wed 06:13:31 PM 44.2361 -72.8297 19° North 239 275 6,500 -1,091 Descending Boston Center
Wed 06:14:31 PM 44.2889 -72.8522 343° North 207 238 5,500 -446 Descending Boston Center
Wed 06:15:32 PM 44.3172 -72.9025 308° West 180 207 5,600 -532 Climbing Boston Center
Wed 06:16:35 PM 44.3517 -72.9583 311° West 179 206 4,400 -1,016 Descending Boston Center
Wed 06:17:36 PM 44.3761 -72.9961 312° West 132 152 3,500 -843 Descending Boston Center
Wed 06:18:36 PM 44.3997 -73.0347 311° West 123 142 2,700 -744 Descending Boston Center
Wed 06:19:37 PM 44.4217 -73.0703 311° West 122 140 2,000 -720 Descending Boston Center
Wed 06:20:41 PM 44.4444 -73.1072 311° West 126 145 1,200 -768 Descending Boston Center
Wed 06:21:42 PM 44.4675 -73.1447 311° West 121 139 400 -787 Descending Boston Center

Login

Don't have an account? Register now (free) for customized features, flight alerts, and more!